createdAt,value
2023-06-08T00:00:59.724Z,27.71
2023-06-08T00:01:59.752Z,27.74
2023-06-08T00:02:59.932Z,27.71
2023-06-08T00:03:59.897Z,27.74
2023-06-08T00:04:59.815Z,27.71
2023-06-08T00:05:59.896Z,27.72
2023-06-08T00:06:59.899Z,27.72
2023-06-08T00:07:59.939Z,27.72
2023-06-08T00:09:00.024Z,27.68
2023-06-08T00:10:00.034Z,27.71
2023-06-08T00:11:00.040Z,27.74
2023-06-08T00:12:00.050Z,27.69
2023-06-08T00:13:00.092Z,27.69
2023-06-08T00:14:00.158Z,27.71
2023-06-08T00:15:00.213Z,27.66
2023-06-08T00:16:00.223Z,27.69
2023-06-08T00:17:00.229Z,27.68
2023-06-08T00:18:00.286Z,27.68
2023-06-08T00:19:00.301Z,27.66
2023-06-08T00:20:00.365Z,27.68
2023-06-08T00:21:00.306Z,27.69
2023-06-08T00:22:00.378Z,27.68
2023-06-08T00:23:00.435Z,27.66
2023-06-08T00:24:00.506Z,27.68
2023-06-08T00:25:00.478Z,27.68
2023-06-08T00:26:00.539Z,27.68
2023-06-08T00:27:00.490Z,27.68
2023-06-08T00:28:00.571Z,27.68
2023-06-08T00:29:00.570Z,27.69
2023-06-08T00:30:00.579Z,27.69
2023-06-08T00:31:00.630Z,27.65
2023-06-08T00:32:00.763Z,27.65
2023-06-08T00:33:00.748Z,27.65
2023-06-08T00:34:00.743Z,27.65
2023-06-08T00:35:00.824Z,27.65
2023-06-08T00:36:00.797Z,27.65
2023-06-08T00:37:00.845Z,27.64
2023-06-08T00:38:00.882Z,27.65
2023-06-08T00:39:00.882Z,27.65
2023-06-08T00:40:00.966Z,27.65
2023-06-08T00:41:00.928Z,27.62
2023-06-08T00:42:00.982Z,27.65
2023-06-08T00:43:01.031Z,27.65
2023-06-08T00:44:01.098Z,27.69
2023-06-08T00:45:01.110Z,27.66
2023-06-08T00:46:01.116Z,27.68
2023-06-08T00:47:01.162Z,27.65
2023-06-08T00:48:01.234Z,27.65
2023-06-08T00:49:01.188Z,27.64
2023-06-08T00:50:01.241Z,27.66
2023-06-08T00:51:01.289Z,27.65
2023-06-08T00:52:01.278Z,27.66
2023-06-08T00:53:01.289Z,27.66
2023-06-08T00:54:01.294Z,27.64
2023-06-08T00:55:01.322Z,27.62
2023-06-08T00:56:01.317Z,27.62
2023-06-08T00:57:01.346Z,27.65
2023-06-08T00:58:01.404Z,27.66
2023-06-08T00:59:01.406Z,27.65
2023-06-08T01:00:01.423Z,27.61
2023-06-08T01:01:01.487Z,27.64
2023-06-08T01:02:01.458Z,27.62
2023-06-08T01:03:01.484Z,27.60
2023-06-08T01:04:01.499Z,27.64
2023-06-08T01:05:01.523Z,27.62
2023-06-08T01:06:01.472Z,27.62
2023-06-08T01:07:01.507Z,27.64
2023-06-08T01:08:01.512Z,27.64
2023-06-08T01:09:01.538Z,27.62
2023-06-08T01:10:01.512Z,27.61
2023-06-08T01:11:01.521Z,27.62
2023-06-08T01:12:01.519Z,27.61
2023-06-08T01:13:01.553Z,27.60
2023-06-08T01:14:01.594Z,27.58
2023-06-08T01:15:01.691Z,27.64
2023-06-08T01:16:01.661Z,27.60
2023-06-08T01:17:03.513Z,27.60
2023-06-08T01:18:01.616Z,27.60
2023-06-08T01:19:01.588Z,27.60
2023-06-08T01:20:01.610Z,27.60
2023-06-08T01:21:01.568Z,27.60
2023-06-08T01:22:01.565Z,27.60
2023-06-08T01:23:01.551Z,27.58
2023-06-08T01:24:01.602Z,27.60
2023-06-08T01:25:01.576Z,27.57
2023-06-08T01:26:01.523Z,27.58
2023-06-08T01:27:01.496Z,27.57
2023-06-08T01:28:01.509Z,27.57
2023-06-08T01:29:01.473Z,27.58
2023-06-08T01:30:01.478Z,27.60
2023-06-08T01:31:01.472Z,27.58
2023-06-08T01:32:01.472Z,27.58
2023-06-08T01:33:01.516Z,27.60
2023-06-08T01:34:01.453Z,27.58
2023-06-08T01:35:01.484Z,27.58
2023-06-08T01:36:01.460Z,27.54
2023-06-08T01:37:01.433Z,27.55
2023-06-08T01:38:01.444Z,27.58
2023-06-08T01:39:01.435Z,27.57
2023-06-08T01:40:01.440Z,27.55
2023-06-08T01:41:01.385Z,27.55
2023-06-08T01:42:01.404Z,27.54
2023-06-08T01:43:01.413Z,27.57
2023-06-08T01:44:01.422Z,27.54
2023-06-08T01:45:01.401Z,27.57
2023-06-08T01:46:01.355Z,27.53
2023-06-08T01:47:01.437Z,27.55
2023-06-08T01:48:01.374Z,27.54
2023-06-08T01:49:01.357Z,27.55
2023-06-08T01:50:01.313Z,27.57
2023-06-08T01:51:01.387Z,27.55
2023-06-08T01:52:01.311Z,27.55
2023-06-08T01:53:01.306Z,27.54
2023-06-08T01:54:01.336Z,27.53
2023-06-08T01:55:01.338Z,27.53
2023-06-08T01:56:01.300Z,27.54
2023-06-08T01:57:01.309Z,27.53
2023-06-08T01:58:01.320Z,27.54
2023-06-08T01:59:01.264Z,27.51
2023-06-08T02:00:01.251Z,27.51
2023-06-08T02:01:01.348Z,27.51
2023-06-08T02:02:01.330Z,27.54
2023-06-08T02:03:01.782Z,27.51
2023-06-08T02:04:01.252Z,27.50
2023-06-08T02:05:01.282Z,27.50
2023-06-08T02:06:01.234Z,27.48
2023-06-08T02:07:01.229Z,27.51
2023-06-08T02:08:01.213Z,27.50
2023-06-08T02:09:01.206Z,27.50
2023-06-08T02:10:01.220Z,27.50
2023-06-08T02:11:01.197Z,27.48
2023-06-08T02:12:01.210Z,27.51
2023-06-08T02:13:01.217Z,27.50
2023-06-08T02:14:01.193Z,27.48
2023-06-08T02:15:01.171Z,27.48
2023-06-08T02:16:01.170Z,27.50
2023-06-08T02:17:01.295Z,27.51
2023-06-08T02:18:01.190Z,27.51
2023-06-08T02:19:08.162Z,27.50
2023-06-08T02:20:01.160Z,27.48
2023-06-08T02:21:01.142Z,27.51
2023-06-08T02:22:01.123Z,27.47
2023-06-08T02:23:01.157Z,27.48
2023-06-08T02:24:01.166Z,27.47
2023-06-08T02:25:01.115Z,27.51
2023-06-08T02:26:01.110Z,27.50
2023-06-08T02:27:01.063Z,27.48
2023-06-08T02:28:01.064Z,27.50
2023-06-08T02:29:01.097Z,27.47
2023-06-08T02:30:01.065Z,27.47
2023-06-08T02:31:01.047Z,27.47
2023-06-08T02:32:01.027Z,27.48
2023-06-08T02:33:01.133Z,27.45
2023-06-08T02:34:01.036Z,27.44
2023-06-08T02:35:01.040Z,27.48
2023-06-08T02:36:01.058Z,27.44
2023-06-08T02:37:01.025Z,27.45
2023-06-08T02:38:01.262Z,27.45
2023-06-08T02:39:00.987Z,27.45
2023-06-08T02:40:00.985Z,27.45
2023-06-08T02:41:00.964Z,27.47
2023-06-08T02:42:00.983Z,27.47
2023-06-08T02:43:01.292Z,27.43
2023-06-08T02:44:01.003Z,27.45
2023-06-08T02:45:00.976Z,27.44
2023-06-08T02:46:00.972Z,27.45
2023-06-08T02:47:00.967Z,27.43
2023-06-08T02:48:01.320Z,27.45
2023-06-08T02:49:00.923Z,27.45
2023-06-08T02:50:00.929Z,27.43
2023-06-08T02:51:00.954Z,27.43
2023-06-08T02:52:00.946Z,27.44
2023-06-08T02:53:00.903Z,27.43
2023-06-08T02:54:00.910Z,27.41
2023-06-08T02:55:00.891Z,27.43
2023-06-08T02:56:00.874Z,27.41
2023-06-08T02:57:00.840Z,27.43
2023-06-08T02:58:00.883Z,27.43
2023-06-08T02:59:00.849Z,27.41
2023-06-08T03:00:00.847Z,27.43
2023-06-08T03:01:11.711Z,27.40
2023-06-08T03:02:01.849Z,27.40
2023-06-08T03:03:01.366Z,27.40
2023-06-08T03:04:00.833Z,27.41
2023-06-08T03:05:00.831Z,27.40
2023-06-08T03:06:00.813Z,27.38
2023-06-08T03:07:00.822Z,27.40
2023-06-08T03:08:00.823Z,27.41
2023-06-08T03:09:00.761Z,27.40
2023-06-08T03:10:00.760Z,27.38
2023-06-08T03:11:00.769Z,27.40
2023-06-08T03:12:00.801Z,27.40
2023-06-08T03:13:04.278Z,27.38
2023-06-08T03:14:00.739Z,27.40
2023-06-08T03:15:00.727Z,27.37
2023-06-08T03:16:00.833Z,27.37
2023-06-08T03:17:00.728Z,27.38
2023-06-08T03:18:00.819Z,27.36
2023-06-08T03:19:00.751Z,27.36
2023-06-08T03:20:00.702Z,27.38
2023-06-08T03:21:00.714Z,27.38
2023-06-08T03:22:00.685Z,27.37
2023-06-08T03:23:00.680Z,27.38
2023-06-08T03:24:00.725Z,27.34
2023-06-08T03:25:00.674Z,27.37
2023-06-08T03:26:00.695Z,27.34
2023-06-08T03:27:00.683Z,27.37
2023-06-08T03:28:00.653Z,27.36
2023-06-08T03:29:00.652Z,27.36
2023-06-08T03:30:00.643Z,27.36
2023-06-08T03:31:00.645Z,27.33
2023-06-08T03:32:00.669Z,27.34
2023-06-08T03:33:00.697Z,27.34
2023-06-08T03:34:00.590Z,27.34
2023-06-08T03:35:00.588Z,27.34
2023-06-08T03:36:00.653Z,27.33
2023-06-08T03:37:00.614Z,27.33
2023-06-08T03:38:00.795Z,27.33
2023-06-08T03:39:00.562Z,27.33
2023-06-08T03:40:00.562Z,27.32
2023-06-08T03:41:00.544Z,27.34
2023-06-08T03:42:00.533Z,27.32
2023-06-08T03:43:00.544Z,27.32
2023-06-08T03:44:00.540Z,27.29
2023-06-08T03:45:00.555Z,27.34
2023-06-08T03:46:00.606Z,27.30
2023-06-08T03:47:00.588Z,27.32
2023-06-08T03:48:00.569Z,27.30
2023-06-08T03:49:00.498Z,27.32
2023-06-08T03:50:00.492Z,27.29
2023-06-08T03:51:03.568Z,27.30
2023-06-08T03:52:00.496Z,27.30
2023-06-08T03:53:00.460Z,27.32
2023-06-08T03:54:00.419Z,27.30
2023-06-08T03:55:00.474Z,27.29
2023-06-08T03:56:00.428Z,27.29
2023-06-08T03:57:00.493Z,27.29
2023-06-08T03:58:00.414Z,27.29
2023-06-08T03:59:00.416Z,27.30
2023-06-08T04:00:00.391Z,27.29
2023-06-08T04:01:00.413Z,27.29
2023-06-08T04:02:00.411Z,27.29
2023-06-08T04:03:00.529Z,27.29
2023-06-08T04:04:00.537Z,27.30
2023-06-08T04:05:00.422Z,27.27
2023-06-08T04:06:00.369Z,27.24
2023-06-08T04:07:00.401Z,27.27
2023-06-08T04:08:00.345Z,27.26
2023-06-08T04:09:00.342Z,27.26
2023-06-08T04:10:00.377Z,27.27
2023-06-08T04:11:00.372Z,27.26
2023-06-08T04:12:00.341Z,27.26
2023-06-08T04:13:00.326Z,27.27
2023-06-08T04:14:00.346Z,27.27
2023-06-08T04:15:00.301Z,27.23
2023-06-08T04:16:00.472Z,27.27
2023-06-08T04:17:00.287Z,27.26
2023-06-08T04:18:00.317Z,27.23
2023-06-08T04:19:00.270Z,27.24
2023-06-08T04:20:00.283Z,27.24
2023-06-08T04:21:00.322Z,27.26
2023-06-08T04:22:00.350Z,27.24
2023-06-08T04:23:00.301Z,27.23
2023-06-08T04:24:00.344Z,27.24
2023-06-08T04:25:00.230Z,27.23
2023-06-08T04:26:00.217Z,27.23
2023-06-08T04:27:00.223Z,27.24
2023-06-08T04:28:00.231Z,27.23
2023-06-08T04:29:00.208Z,27.24
2023-06-08T04:30:00.246Z,27.23
2023-06-08T04:31:00.859Z,27.24
2023-06-08T04:32:00.166Z,27.24
2023-06-08T04:33:00.222Z,27.24
2023-06-08T04:34:00.173Z,27.23
2023-06-08T04:35:00.180Z,27.23
2023-06-08T04:36:00.169Z,27.26
2023-06-08T04:37:00.178Z,27.23
2023-06-08T04:38:00.144Z,27.24
2023-06-08T04:39:00.145Z,27.24
2023-06-08T04:40:00.142Z,27.23
2023-06-08T04:41:00.141Z,27.24
2023-06-08T04:42:00.195Z,27.23
2023-06-08T04:43:00.162Z,27.23
2023-06-08T04:44:00.157Z,27.24
2023-06-08T04:45:00.179Z,27.24
2023-06-08T04:46:00.165Z,27.24
2023-06-08T04:47:00.275Z,27.24
2023-06-08T04:48:00.222Z,27.23
2023-06-08T04:49:00.206Z,27.24
2023-06-08T04:50:00.258Z,27.26
2023-06-08T04:51:00.242Z,27.24
2023-06-08T04:52:00.240Z,27.23
2023-06-08T04:53:00.286Z,27.24
2023-06-08T04:54:00.281Z,27.27
2023-06-08T04:55:00.291Z,27.27
2023-06-08T04:56:00.292Z,27.29
2023-06-08T04:57:00.312Z,27.26
2023-06-08T04:58:00.354Z,27.22
2023-06-08T04:59:00.351Z,27.18
2023-06-08T05:00:00.351Z,27.17
2023-06-08T05:01:00.421Z,27.16
2023-06-08T05:02:00.373Z,27.13
2023-06-08T05:03:00.559Z,27.13
2023-06-08T05:04:00.430Z,27.16
2023-06-08T05:05:00.429Z,27.14
2023-06-08T05:06:00.467Z,27.11
2023-06-08T05:07:00.488Z,27.11
2023-06-08T05:08:00.494Z,27.10
2023-06-08T05:09:00.539Z,27.10
2023-06-08T05:10:00.593Z,27.07
2023-06-08T05:11:00.607Z,27.09
2023-06-08T05:12:00.609Z,27.04
2023-06-08T05:13:00.648Z,27.04
2023-06-08T05:14:00.651Z,27.07
2023-06-08T05:15:00.766Z,27.07
2023-06-08T05:16:00.732Z,27.06
2023-06-08T05:17:00.860Z,27.04
2023-06-08T05:18:00.837Z,27.03
2023-06-08T05:19:00.815Z,27.07
2023-06-08T05:20:00.834Z,27.07
2023-06-08T05:21:01.837Z,27.04
2023-06-08T05:22:00.881Z,27.04
2023-06-08T05:23:00.932Z,27.07
2023-06-08T05:24:01.019Z,27.04
2023-06-08T05:25:01.013Z,27.06
2023-06-08T05:26:01.010Z,27.03
2023-06-08T05:27:01.008Z,27.04
2023-06-08T05:28:01.076Z,27.03
2023-06-08T05:29:01.061Z,27.03
2023-06-08T05:30:04.997Z,27.03
2023-06-08T05:31:01.143Z,27.00
2023-06-08T05:32:01.048Z,27.06
2023-06-08T05:33:01.162Z,27.03
2023-06-08T05:34:01.070Z,27.03
2023-06-08T05:35:01.071Z,27.04
2023-06-08T05:36:04.718Z,27.02
2023-06-08T05:37:01.052Z,27.02
2023-06-08T05:38:01.024Z,27.02
2023-06-08T05:39:01.011Z,27.00
2023-06-08T05:40:01.045Z,27.02
2023-06-08T05:41:01.011Z,26.99
2023-06-08T05:42:00.979Z,27.02
2023-06-08T05:43:01.011Z,27.00
2023-06-08T05:44:00.983Z,26.99
2023-06-08T05:45:00.985Z,27.00
2023-06-08T05:46:00.944Z,26.97
2023-06-08T05:47:01.848Z,26.99
2023-06-08T05:48:01.076Z,26.97
2023-06-08T05:49:00.990Z,27.00
2023-06-08T05:50:00.945Z,27.03
2023-06-08T05:51:00.972Z,26.99
2023-06-08T05:52:00.945Z,26.97
2023-06-08T05:53:00.911Z,27.00
2023-06-08T05:54:00.926Z,26.99
2023-06-08T05:55:00.916Z,26.99
2023-06-08T05:56:00.890Z,27.02
2023-06-08T05:57:00.938Z,27.00
2023-06-08T05:58:00.971Z,27.00
2023-06-08T05:59:01.023Z,26.99
2023-06-08T06:00:01.071Z,26.99
2023-06-08T06:01:01.056Z,26.97
2023-06-08T06:02:01.096Z,27.00
2023-06-08T06:03:03.826Z,26.97
2023-06-08T06:04:01.300Z,27.00
2023-06-08T06:05:01.243Z,26.97
2023-06-08T06:06:01.117Z,27.00
2023-06-08T06:07:01.128Z,26.96
2023-06-08T06:08:01.075Z,26.99
2023-06-08T06:09:01.109Z,27.02
2023-06-08T06:10:01.066Z,26.97
2023-06-08T06:11:01.068Z,26.97
2023-06-08T06:12:01.088Z,27.00
2023-06-08T06:13:01.151Z,26.97
2023-06-08T06:14:01.064Z,27.00
2023-06-08T06:15:01.103Z,26.99
2023-06-08T06:16:01.128Z,26.99
2023-06-08T06:17:07.522Z,27.00
2023-06-08T06:18:02.067Z,27.02
2023-06-08T06:19:01.063Z,27.00
2023-06-08T06:20:01.005Z,27.00
2023-06-08T06:21:01.002Z,27.00
2023-06-08T06:22:00.965Z,27.02
2023-06-08T06:23:01.018Z,27.00
2023-06-08T06:24:01.059Z,27.00
2023-06-08T06:25:00.967Z,27.00
2023-06-08T06:26:00.969Z,27.04
2023-06-08T06:27:00.943Z,27.03
2023-06-08T06:28:00.953Z,27.03
2023-06-08T06:29:00.969Z,27.03
2023-06-08T06:30:00.964Z,27.03
2023-06-08T06:31:00.976Z,27.04
2023-06-08T06:32:01.014Z,27.06
2023-06-08T06:33:00.957Z,27.06
2023-06-08T06:34:00.933Z,27.03
2023-06-08T06:35:00.979Z,27.06
2023-06-08T06:36:01.019Z,27.04
2023-06-08T06:37:01.052Z,27.09
2023-06-08T06:38:01.063Z,27.09
2023-06-08T06:39:01.068Z,27.10
2023-06-08T06:40:01.097Z,27.06
2023-06-08T06:41:01.103Z,27.10
2023-06-08T06:42:01.154Z,27.09
2023-06-08T06:43:01.150Z,27.10
2023-06-08T06:44:01.210Z,27.11
2023-06-08T06:45:01.205Z,27.10
2023-06-08T06:46:01.296Z,27.06
2023-06-08T06:47:01.289Z,27.09
2023-06-08T06:48:01.391Z,27.09
2023-06-08T06:49:01.291Z,27.10
2023-06-08T06:50:01.349Z,27.10
2023-06-08T06:51:01.399Z,27.10
2023-06-08T06:52:01.385Z,27.11
2023-06-08T06:53:01.432Z,27.09
2023-06-08T06:54:01.439Z,27.11
2023-06-08T06:55:01.505Z,27.11
2023-06-08T06:56:01.496Z,27.14
2023-06-08T06:57:01.508Z,27.11
2023-06-08T06:58:01.888Z,27.13
2023-06-08T06:59:01.564Z,27.09
2023-06-08T07:00:01.550Z,27.10
2023-06-08T07:01:01.617Z,27.10
2023-06-08T07:02:01.709Z,27.09
2023-06-08T07:03:01.648Z,27.10
2023-06-08T07:04:01.716Z,27.10
2023-06-08T07:05:01.694Z,27.07
2023-06-08T07:06:01.736Z,27.09
2023-06-08T07:07:01.811Z,27.07
2023-06-08T07:08:01.804Z,27.04
2023-06-08T07:09:01.862Z,27.06
2023-06-08T07:10:01.894Z,27.06
2023-06-08T07:11:01.903Z,27.04
2023-06-08T07:12:14.880Z,27.06
2023-06-08T07:13:02.908Z,27.04
2023-06-08T07:14:01.927Z,27.00
2023-06-08T07:15:01.889Z,27.02
2023-06-08T07:16:01.956Z,27.03
2023-06-08T07:17:01.882Z,27.00
2023-06-08T07:18:02.416Z,27.00
2023-06-08T07:19:01.871Z,26.97
2023-06-08T07:20:01.880Z,27.00
2023-06-08T07:21:01.877Z,27.00
2023-06-08T07:22:06.105Z,27.00
2023-06-08T07:23:24.039Z,27.00
2023-06-08T07:24:34.708Z,27.00
2023-06-08T07:25:51.366Z,27.03
2023-06-08T07:26:29.165Z,27.02
2023-06-08T07:27:02.854Z,27.04
2023-06-08T07:28:04.167Z,27.02
2023-06-08T07:29:01.809Z,27.02
2023-06-08T07:30:01.804Z,27.06
2023-06-08T07:31:01.878Z,27.06
2023-06-08T07:32:01.776Z,27.04
2023-06-08T07:33:01.829Z,27.04
2023-06-08T07:34:01.755Z,27.03
2023-06-08T07:35:01.755Z,27.06
2023-06-08T07:36:01.778Z,27.04
2023-06-08T07:37:01.757Z,27.03
2023-06-08T07:38:01.760Z,27.06
2023-06-08T07:39:01.755Z,27.04
2023-06-08T07:40:01.716Z,27.04
2023-06-08T07:41:01.703Z,27.04
2023-06-08T07:42:01.712Z,27.06
2023-06-08T07:43:01.716Z,27.07
2023-06-08T07:44:01.672Z,27.07
2023-06-08T07:45:01.659Z,27.07
2023-06-08T07:46:01.700Z,27.09
2023-06-08T07:47:01.779Z,27.10
2023-06-08T07:48:01.792Z,27.13
2023-06-08T07:49:01.887Z,27.10
2023-06-08T07:50:01.858Z,27.14
2023-06-08T07:51:01.786Z,27.11
2023-06-08T07:52:01.794Z,27.14
2023-06-08T07:53:01.844Z,27.13
2023-06-08T07:54:01.876Z,27.13
2023-06-08T07:55:01.889Z,27.14
2023-06-08T07:56:01.880Z,27.11
2023-06-08T07:57:01.952Z,27.13
2023-06-08T07:58:01.937Z,27.13
2023-06-08T07:59:02.011Z,27.11
2023-06-08T08:00:01.977Z,27.13
2023-06-08T08:01:02.089Z,27.14
2023-06-08T08:02:02.084Z,27.13
2023-06-08T08:03:02.303Z,27.17
2023-06-08T08:04:02.501Z,27.18
2023-06-08T08:05:02.065Z,27.18
2023-06-08T08:06:02.094Z,27.18
2023-06-08T08:07:02.105Z,27.16
2023-06-08T08:08:02.103Z,27.17
2023-06-08T08:09:02.415Z,27.18
2023-06-08T08:10:02.157Z,27.20
2023-06-08T08:11:02.203Z,27.18
2023-06-08T08:12:02.154Z,27.22
2023-06-08T08:13:02.147Z,27.20
2023-06-08T08:14:02.384Z,27.18
2023-06-08T08:15:02.218Z,27.23
2023-06-08T08:16:02.230Z,27.20
2023-06-08T08:17:02.246Z,27.23
2023-06-08T08:18:02.239Z,27.24
2023-06-08T08:19:02.231Z,27.26
2023-06-08T08:20:02.248Z,27.24
2023-06-08T08:21:02.324Z,27.23
2023-06-08T08:22:02.289Z,27.23
2023-06-08T08:23:02.300Z,27.23
2023-06-08T08:24:02.442Z,27.24
2023-06-08T08:25:02.340Z,27.23
2023-06-08T08:26:02.352Z,27.23
2023-06-08T08:27:02.338Z,27.22
2023-06-08T08:28:02.352Z,27.23
2023-06-08T08:29:02.345Z,27.22
2023-06-08T08:30:02.373Z,27.20
2023-06-08T08:31:02.434Z,27.18
2023-06-08T08:32:02.368Z,27.18
2023-06-08T08:33:02.417Z,27.18
2023-06-08T08:34:02.445Z,27.20
2023-06-08T08:35:02.412Z,27.20
2023-06-08T08:36:02.441Z,27.20
2023-06-08T08:37:02.429Z,27.18
2023-06-08T08:38:02.456Z,27.18
2023-06-08T08:39:02.930Z,27.22
2023-06-08T08:40:02.422Z,27.22
2023-06-08T08:41:02.458Z,27.24
2023-06-08T08:42:02.429Z,27.20
2023-06-08T08:43:02.459Z,27.18
2023-06-08T08:44:02.594Z,27.22
2023-06-08T08:45:02.503Z,27.23
2023-06-08T08:46:02.518Z,27.20
2023-06-08T08:47:02.549Z,27.18
2023-06-08T08:48:02.631Z,27.20
2023-06-08T08:49:04.599Z,27.22
2023-06-08T08:50:02.507Z,27.23
2023-06-08T08:51:02.530Z,27.22
2023-06-08T08:52:02.549Z,27.24
2023-06-08T08:53:02.487Z,27.23
2023-06-08T08:54:02.907Z,27.23
2023-06-08T08:55:02.522Z,27.26
2023-06-08T08:56:02.466Z,27.23
2023-06-08T08:57:02.467Z,27.24
2023-06-08T08:58:02.480Z,27.22
2023-06-08T08:59:02.473Z,27.22
2023-06-08T09:00:02.548Z,27.22
2023-06-08T09:01:02.465Z,27.22
2023-06-08T09:02:02.467Z,27.20
2023-06-08T09:03:02.564Z,27.23
2023-06-08T09:04:03.000Z,27.20
2023-06-08T09:05:02.409Z,27.22
2023-06-08T09:06:02.407Z,27.23
2023-06-08T09:07:02.424Z,27.24
2023-06-08T09:08:02.402Z,27.22
2023-06-08T09:09:02.396Z,27.23
2023-06-08T09:10:02.405Z,27.22
2023-06-08T09:11:02.376Z,27.22
2023-06-08T09:12:02.436Z,27.20
2023-06-08T09:13:02.362Z,27.20
2023-06-08T09:14:02.367Z,27.18
2023-06-08T09:15:02.711Z,27.18
2023-06-08T09:16:02.362Z,27.20
2023-06-08T09:17:02.378Z,27.20
2023-06-08T09:18:02.343Z,27.18
2023-06-08T09:19:02.318Z,27.17
2023-06-08T09:20:02.300Z,27.14
2023-06-08T09:21:02.316Z,27.17
2023-06-08T09:22:02.280Z,27.18
2023-06-08T09:23:02.277Z,27.18
2023-06-08T09:24:02.516Z,27.16
2023-06-08T09:25:02.283Z,27.17
2023-06-08T09:26:02.269Z,27.17
2023-06-08T09:27:02.249Z,27.16
2023-06-08T09:28:02.247Z,27.16
2023-06-08T09:29:02.487Z,27.16
2023-06-08T09:30:02.258Z,27.13
2023-06-08T09:31:02.445Z,27.14
2023-06-08T09:32:02.466Z,27.14
2023-06-08T09:33:02.235Z,27.13
2023-06-08T09:34:02.214Z,27.14
2023-06-08T09:35:03.130Z,27.14
2023-06-08T09:36:02.241Z,27.17
2023-06-08T09:37:02.172Z,27.14
2023-06-08T09:38:02.152Z,27.13
2023-06-08T09:39:02.210Z,27.13
2023-06-08T09:40:02.185Z,27.13
2023-06-08T09:41:02.180Z,27.13
2023-06-08T09:42:02.152Z,27.11
2023-06-08T09:43:02.139Z,27.13
2023-06-08T09:44:02.162Z,27.11
2023-06-08T09:45:02.096Z,27.09
2023-06-08T09:46:02.189Z,27.10
2023-06-08T09:47:02.176Z,27.10
2023-06-08T09:48:02.127Z,27.10
2023-06-08T09:49:02.098Z,27.10
2023-06-08T09:50:02.131Z,27.11
2023-06-08T09:51:02.069Z,27.10
2023-06-08T09:52:04.378Z,27.11
2023-06-08T09:53:02.091Z,27.09
2023-06-08T09:54:02.447Z,27.10
2023-06-08T09:55:02.054Z,27.09
2023-06-08T09:56:02.087Z,27.10
2023-06-08T09:57:02.049Z,27.10
2023-06-08T09:58:02.048Z,27.09
2023-06-08T09:59:02.030Z,27.09
2023-06-08T10:00:02.039Z,27.07
2023-06-08T10:01:02.035Z,27.07
2023-06-08T10:02:02.067Z,27.07
2023-06-08T10:03:02.057Z,27.13
2023-06-08T10:04:04.457Z,27.10
2023-06-08T10:05:02.004Z,27.09
2023-06-08T10:06:01.974Z,27.10
2023-06-08T10:07:01.984Z,27.11
2023-06-08T10:08:01.980Z,27.13
2023-06-08T10:09:01.972Z,27.11
2023-06-08T10:10:01.938Z,27.13
2023-06-08T10:11:01.957Z,27.17
2023-06-08T10:12:01.976Z,27.13
2023-06-08T10:13:01.962Z,27.13
2023-06-08T10:14:01.998Z,27.10
2023-06-08T10:15:01.953Z,27.11
2023-06-08T10:16:01.937Z,27.13
2023-06-08T10:17:01.871Z,27.13
2023-06-08T10:18:01.960Z,27.11
2023-06-08T10:19:01.910Z,27.11
2023-06-08T10:20:01.880Z,27.11
2023-06-08T10:21:01.900Z,27.11
2023-06-08T10:22:01.857Z,27.11
2023-06-08T10:23:01.865Z,27.13
2023-06-08T10:24:02.006Z,27.11
2023-06-08T10:26:02.835Z,27.09
2023-06-08T10:27:01.826Z,27.13
2023-06-08T10:28:01.903Z,27.10
2023-06-08T10:29:16.474Z,27.07
2023-06-08T10:30:02.831Z,27.09
2023-06-08T10:31:01.848Z,27.10
2023-06-08T10:32:01.823Z,27.13
2023-06-08T10:33:01.850Z,27.13
2023-06-08T10:34:01.788Z,27.14
2023-06-08T10:35:01.773Z,27.16
2023-06-08T10:36:01.744Z,27.18
2023-06-08T10:37:01.777Z,27.16
2023-06-08T10:38:01.766Z,27.17
2023-06-08T10:39:01.768Z,27.16
2023-06-08T10:40:01.751Z,27.20
2023-06-08T10:41:01.762Z,27.16
2023-06-08T10:42:01.730Z,27.13
2023-06-08T10:43:15.038Z,27.09
2023-06-08T10:44:02.997Z,27.16
2023-06-08T10:45:01.715Z,27.07
2023-06-08T10:46:01.797Z,27.14
2023-06-08T10:47:01.709Z,27.10
2023-06-08T10:48:01.731Z,27.11
2023-06-08T10:49:01.699Z,27.07
2023-06-08T10:50:01.728Z,27.10
2023-06-08T10:51:01.651Z,27.10
2023-06-08T10:52:01.666Z,27.13
2023-06-08T10:53:01.654Z,27.11
2023-06-08T10:54:02.015Z,27.10
2023-06-08T10:55:01.643Z,27.10
2023-06-08T10:56:01.635Z,27.07
2023-06-08T10:57:15.686Z,27.10
2023-06-08T10:58:02.654Z,27.07
2023-06-08T10:59:01.976Z,27.10
2023-06-08T11:00:01.646Z,27.11
2023-06-08T11:01:01.670Z,27.07
2023-06-08T11:02:01.716Z,27.10
2023-06-08T11:03:01.855Z,27.07
2023-06-08T11:04:01.872Z,27.09
2023-06-08T11:05:01.625Z,27.07
2023-06-08T11:06:01.606Z,27.07
2023-06-08T11:07:01.668Z,27.06
2023-06-08T11:08:01.678Z,27.09
2023-06-08T11:09:01.694Z,27.04
2023-06-08T11:10:01.713Z,27.06
2023-06-08T11:11:01.744Z,27.06
2023-06-08T11:12:01.767Z,27.04
2023-06-08T11:13:01.788Z,27.06
2023-06-08T11:14:01.986Z,27.09
2023-06-08T11:15:01.826Z,27.09
2023-06-08T11:16:01.903Z,27.13
2023-06-08T11:17:01.887Z,27.14
2023-06-08T11:18:01.937Z,27.17
2023-06-08T11:19:01.937Z,27.17
2023-06-08T11:20:01.923Z,27.14
2023-06-08T11:21:01.943Z,27.13
2023-06-08T11:22:02.016Z,27.09
2023-06-08T11:23:01.984Z,27.06
2023-06-08T11:24:02.065Z,27.09
2023-06-08T11:25:02.028Z,27.04
2023-06-08T11:26:02.030Z,27.10
2023-06-08T11:27:04.138Z,27.11
2023-06-08T11:28:02.041Z,27.13
2023-06-08T11:29:02.004Z,27.07
2023-06-08T11:30:02.021Z,27.11
2023-06-08T11:31:02.058Z,27.10
2023-06-08T11:32:01.995Z,27.11
2023-06-08T11:33:02.079Z,27.11
2023-06-08T11:34:01.973Z,27.17
2023-06-08T11:35:01.993Z,27.13
2023-06-08T11:36:01.997Z,27.11
2023-06-08T11:37:01.948Z,27.13
2023-06-08T11:38:01.956Z,27.14
2023-06-08T11:39:01.950Z,27.14
2023-06-08T11:40:01.978Z,27.16
2023-06-08T11:41:01.950Z,27.13
2023-06-08T11:42:01.946Z,27.17
2023-06-08T11:43:02.155Z,27.13
2023-06-08T11:44:04.198Z,27.20
2023-06-08T11:45:01.903Z,27.24
2023-06-08T11:46:01.927Z,27.18
2023-06-08T11:47:01.981Z,27.24
2023-06-08T11:48:16.089Z,27.20
2023-06-08T11:49:02.896Z,27.26
2023-06-08T11:50:01.872Z,27.23
2023-06-08T11:51:01.868Z,27.23
2023-06-08T11:52:01.855Z,27.18
2023-06-08T11:53:01.869Z,27.18
2023-06-08T11:54:01.839Z,27.24
2023-06-08T11:55:01.832Z,27.27
2023-06-08T11:56:01.841Z,27.26
2023-06-08T11:57:01.822Z,27.22
2023-06-08T11:58:01.851Z,27.18
2023-06-08T11:59:01.809Z,27.24
2023-06-08T12:00:01.802Z,27.23
2023-06-08T12:01:01.796Z,27.18
2023-06-08T12:02:01.839Z,27.23
2023-06-08T12:03:01.869Z,27.22
2023-06-08T12:04:02.110Z,27.22
2023-06-08T12:05:01.779Z,27.18
2023-06-08T12:06:01.763Z,27.20
2023-06-08T12:07:01.744Z,27.18
2023-06-08T12:08:01.751Z,27.17
2023-06-08T12:09:01.778Z,27.17
2023-06-08T12:10:01.750Z,27.18
2023-06-08T12:11:01.725Z,27.17
2023-06-08T12:12:01.715Z,27.11
2023-06-08T12:13:01.676Z,27.18
2023-06-08T12:14:01.998Z,27.14
2023-06-08T12:15:01.702Z,27.18
2023-06-08T12:16:01.700Z,27.18
2023-06-08T12:17:01.759Z,27.20
2023-06-08T12:18:01.734Z,27.18
2023-06-08T12:19:02.022Z,27.20
2023-06-08T12:20:01.660Z,27.18
2023-06-08T12:21:01.646Z,27.17
2023-06-08T12:22:01.662Z,27.17
2023-06-08T12:23:01.633Z,27.11
2023-06-08T12:24:02.026Z,27.16
2023-06-08T12:25:01.647Z,27.14
2023-06-08T12:26:01.678Z,27.13
2023-06-08T12:27:01.679Z,27.14
2023-06-08T12:28:01.703Z,27.16
2023-06-08T12:29:01.710Z,27.16
2023-06-08T12:30:01.722Z,27.14
2023-06-08T12:31:01.765Z,27.14
2023-06-08T12:32:01.757Z,27.14
2023-06-08T12:33:01.796Z,27.16
2023-06-08T12:34:02.527Z,27.16
2023-06-08T12:35:01.791Z,27.11
2023-06-08T12:36:01.786Z,27.14
2023-06-08T12:37:01.814Z,27.16
2023-06-08T12:38:01.834Z,27.14
2023-06-08T12:39:01.895Z,27.14
2023-06-08T12:40:01.850Z,27.14
2023-06-08T12:41:01.906Z,27.11
2023-06-08T12:42:01.920Z,27.16
2023-06-08T12:43:01.930Z,27.16
2023-06-08T12:44:01.956Z,27.13
2023-06-08T12:45:01.940Z,27.18
2023-06-08T12:46:01.975Z,27.17
2023-06-08T12:47:02.051Z,27.16
2023-06-08T12:48:02.014Z,27.17
2023-06-08T12:49:01.977Z,27.20
2023-06-08T12:50:02.020Z,27.22
2023-06-08T12:51:02.035Z,27.24
2023-06-08T12:52:02.070Z,27.23
2023-06-08T12:53:02.062Z,27.26
2023-06-08T12:54:02.051Z,27.26